Time;durP1;ratioP1;P1;durP2;ratioP2;P2;SDS_P1;SDS_P2;PMS_P1;PMS_P2;Temp;Humidity;BMP_temperature;BMP_pressure;BME280_temperature;BME280_humidity;BME280_pressure;Samples;Min_cycle;Max_cycle;Signal;HPM_P1;HPM_P2
2022/10/27 00:00:23;;;;;;;15.50;11.05;;;11.80;99.90;;;;;;4843027;28;10001187;-72
2022/10/27 00:02:49;;;;;;;19.27;12.73;;;11.80;99.90;;;;;;4674406;28;10000330;-72
2022/10/27 00:05:15;;;;;;;17.50;12.20;;;11.80;99.90;;;;;;5030422;28;20036;-72
2022/10/27 00:07:40;;;;;;;18.25;13.30;;;11.80;99.90;;;;;;5034101;28;20033;-72
2022/10/27 00:10:06;;;;;;;22.13;12.80;;;11.80;99.90;;;;;;5030066;28;20095;-71
2022/10/27 00:12:33;;;;;;;22.98;13.52;;;11.80;99.90;;;;;;5027154;28;20036;-72
2022/10/27 00:14:59;;;;;;;16.92;13.68;;;11.80;99.90;;;;;;5032465;28;20024;-72
2022/10/27 00:17:26;;;;;;;16.65;12.68;;;11.80;99.90;;;;;;5027014;28;20516;-72
2022/10/27 00:19:52;;;;;;;17.38;12.55;;;11.70;99.90;;;;;;5026501;28;20029;-71
2022/10/27 00:22:18;;;;;;;17.92;13.35;;;11.70;99.90;;;;;;5029775;28;20036;-72
2022/10/27 00:24:43;;;;;;;23.40;13.88;;;11.70;99.90;;;;;;5023177;28;20174;-71
2022/10/27 00:27:09;;;;;;;23.60;16.02;;;11.70;99.90;;;;;;5031333;28;20033;-71
2022/10/27 00:29:34;;;;;;;25.52;15.40;;;11.70;99.90;;;;;;5037054;28;20056;-72
2022/10/27 00:32:00;;;;;;;24.90;15.43;;;11.70;99.90;;;;;;5035900;28;20166;-72
2022/10/27 00:34:26;;;;;;;23.92;14.82;;;11.70;99.90;;;;;;5030228;28;20435;-71
2022/10/27 00:36:52;;;;;;;18.98;13.73;;;11.60;99.90;;;;;;5027259;28;20087;-71
2022/10/27 00:39:17;;;;;;;24.00;16.08;;;11.60;99.90;;;;;;5029397;28;20067;-71
2022/10/27 00:41:43;;;;;;;25.08;15.73;;;11.60;99.90;;;;;;5034689;28;20045;-71
2022/10/27 00:44:31;;;;;;;23.00;15.65;;;11.70;99.90;;;;;;5033324;28;20033;-71
2022/10/27 00:47:01;;;;;;;26.90;17.38;;;11.70;99.90;;;;;;5027404;28;20059;-72
2022/10/27 00:49:33;;;;;;;27.70;17.52;;;11.70;99.90;;;;;;5027176;28;20045;-71
2022/10/27 00:52:04;;;;;;;23.92;16.00;;;11.70;99.90;;;;;;5027426;28;20492;-72
2022/10/27 00:54:37;;;;;;;22.30;14.95;;;11.60;99.90;;;;;;5039761;28;20508;-71
2022/10/27 00:57:04;;;;;;;16.95;12.73;;;11.60;99.90;;;;;;5028965;28;20060;-72
2022/10/27 00:59:30;;;;;;;19.73;14.02;;;11.50;99.90;;;;;;5035765;28;20037;-71
2022/10/27 01:01:56;;;;;;;20.88;14.98;;;11.50;99.90;;;;;;5027724;28;20029;-71
2022/10/27 01:04:37;;;;;;;21.00;14.95;;;11.50;99.90;;;;;;5036997;28;20207;-72
2022/10/27 01:07:03;;;;;;;20.52;14.38;;;11.50;99.90;;;;;;5026881;28;20082;-72
2022/10/27 01:09:29;;;;;;;17.92;13.82;;;11.40;99.90;;;;;;5025183;28;20091;-72
2022/10/27 01:11:55;;;;;;;20.17;13.27;;;11.40;99.90;;;;;;5026846;28;20037;-72
2022/10/27 01:14:21;;;;;;;15.60;13.48;;;11.40;99.90;;;;;;5030308;28;20147;-72
2022/10/27 01:17:05;;;;;;;21.42;14.70;;;11.40;99.90;;;;;;5033572;28;20186;-72
2022/10/27 01:20:25;;;;;;;18.05;12.95;;;11.40;99.90;;;;;;5027912;28;20492;-72
2022/10/27 01:23:09;;;;;;;16.77;12.23;;;11.30;99.90;;;;;;5009151;28;20026;-71
2022/10/27 01:25:40;;;;;;;16.30;11.50;;;11.30;99.90;;;;;;5026417;28;20700;-72
2022/10/27 01:28:21;;;;;;;16.42;11.50;;;11.30;99.90;;;;;;5035568;28;20136;-72
2022/10/27 01:31:04;;;;;;;20.00;13.77;;;11.30;99.90;;;;;;5030187;28;20237;-72
2022/10/27 01:33:44;;;;;;;16.60;12.38;;;11.30;99.90;;;;;;5029180;28;20386;-72
2022/10/27 01:36:26;;;;;;;16.98;11.73;;;11.30;99.90;;;;;;5038601;28;20024;-72
2022/10/27 01:39:06;;;;;;;14.07;11.18;;;11.30;99.90;;;;;;5033050;28;20013;-71
2022/10/27 01:41:40;;;;;;;20.15;12.38;;;11.30;99.90;;;;;;5033020;28;20252;-72
2022/10/27 01:44:12;;;;;;;22.25;13.82;;;11.30;99.90;;;;;;5026016;28;20033;-71
2022/10/27 01:46:38;;;;;;;15.38;10.77;;;11.30;99.90;;;;;;5030315;28;20043;-72
2022/10/27 01:49:08;;;;;;;28.08;9.55;;;11.20;99.90;;;;;;5040057;28;20447;-71
2022/10/27 01:51:33;;;;;;;14.15;8.48;;;11.10;99.90;;;;;;5026586;28;20048;-71
2022/10/27 01:54:00;;;;;;;16.65;8.88;;;11.10;99.90;;;;;;5024854;28;20021;-71
2022/10/27 01:56:44;;;;;;;10.55;8.93;;;11.00;99.90;;;;;;5025593;28;20076;-71
2022/10/27 01:59:40;;;;;;;9.43;8.43;;;11.00;99.90;;;;;;5032387;28;20021;-71
2022/10/27 02:02:15;;;;;;;8.32;7.47;;;11.00;99.90;;;;;;5031365;28;20029;-71
2022/10/27 02:05:02;;;;;;;9.13;7.47;;;10.90;99.90;;;;;;5028998;28;20401;-71
2022/10/27 02:07:42;;;;;;;10.20;8.98;;;10.90;99.90;;;;;;5026846;28;20708;-71
2022/10/27 02:10:28;;;;;;;10.57;8.45;;;11.00;99.90;;;;;;5027135;28;20033;-71
2022/10/27 02:12:55;;;;;;;10.55;9.45;;;11.00;99.90;;;;;;5023736;28;20412;-71
2022/10/27 02:15:34;;;;;;;12.85;8.77;;;11.00;99.90;;;;;;5027229;28;20040;-71
2022/10/27 02:18:04;;;;;;;28.88;9.80;;;11.00;99.90;;;;;;5028615;28;20029;-71
2022/10/27 02:20:35;;;;;;;15.65;9.73;;;11.00;99.90;;;;;;5031830;28;20596;-71
2022/10/27 02:23:06;;;;;;;19.02;10.63;;;11.10;99.90;;;;;;5027577;28;20547;-72
2022/10/27 02:25:39;;;;;;;14.90;11.32;;;11.10;99.90;;;;;;5033852;28;20375;-71
2022/10/27 02:28:08;;;;;;;13.98;10.80;;;11.10;99.90;;;;;;5028660;28;20060;-71
2022/10/27 02:30:34;;;;;;;12.25;10.60;;;11.20;99.90;;;;;;5025260;28;20053;-71
2022/10/27 02:33:01;;;;;;;11.73;10.52;;;11.20;99.90;;;;;;5025316;28;20037;-72
2022/10/27 02:35:28;;;;;;;10.55;9.45;;;11.20;99.90;;;;;;5023044;28;20017;-72
2022/10/27 02:37:57;;;;;;;10.70;9.60;;;11.30;99.90;;;;;;5035804;28;20112;-72
2022/10/27 02:40:24;;;;;;;9.40;8.30;;;11.20;99.90;;;;;;5028041;28;20555;-72
2022/10/27 02:42:50;;;;;;;9.02;8.13;;;11.20;99.90;;;;;;5031683;28;20075;-71
2022/10/27 02:45:15;;;;;;;8.25;7.40;;;11.10;99.90;;;;;;5031436;28;20025;-71
2022/10/27 02:47:41;;;;;;;8.30;7.43;;;11.10;99.90;;;;;;5033626;28;20031;-71
2022/10/27 02:50:07;;;;;;;9.27;8.10;;;11.10;99.90;;;;;;5030446;28;20426;-72
2022/10/27 02:52:33;;;;;;;12.73;10.02;;;11.10;99.90;;;;;;5036614;28;20207;-72
2022/10/27 02:54:58;;;;;;;12.63;10.80;;;11.10;99.90;;;;;;5032251;28;20021;-72
2022/10/27 02:57:24;;;;;;;11.00;9.80;;;11.10;99.90;;;;;;5031218;28;20028;-71
2022/10/27 02:59:49;;;;;;;11.75;10.15;;;11.10;99.90;;;;;;5036587;28;20144;-71
2022/10/27 03:02:15;;;;;;;11.80;10.57;;;11.10;99.90;;;;;;5033444;28;20045;-72
2022/10/27 03:04:40;;;;;;;13.05;10.13;;;11.10;99.90;;;;;;5033886;28;20029;-71
2022/10/27 03:07:06;;;;;;;10.15;9.23;;;11.10;99.90;;;;;;5032203;28;20134;-72
2022/10/27 03:09:32;;;;;;;9.20;8.30;;;11.10;99.90;;;;;;5037482;28;20025;-71
2022/10/27 03:11:57;;;;;;;10.75;8.25;;;11.10;99.90;;;;;;5037944;28;20025;-72
2022/10/27 03:14:23;;;;;;;9.43;8.52;;;11.00;99.90;;;;;;5028066;28;20028;-71
2022/10/27 03:16:48;;;;;;;12.13;7.90;;;10.90;99.90;;;;;;5029538;28;20108;-71
2022/10/27 03:19:14;;;;;;;8.93;7.85;;;10.80;99.90;;;;;;5025747;28;20030;-72
2022/10/27 03:21:40;;;;;;;10.13;8.57;;;10.80;99.90;;;;;;5030064;28;22160;-72
2022/10/27 03:24:05;;;;;;;9.80;8.10;;;10.70;99.90;;;;;;5031283;28;20661;-72
2022/10/27 03:26:31;;;;;;;8.85;7.95;;;10.60;99.90;;;;;;5022134;28;20033;-71
2022/10/27 03:28:57;;;;;;;8.32;7.50;;;10.60;99.90;;;;;;5028537;28;20025;-71
2022/10/27 03:31:22;;;;;;;8.05;7.25;;;10.50;99.90;;;;;;5022573;28;20029;-72
2022/10/27 03:33:48;;;;;;;10.30;6.88;;;10.50;99.90;;;;;;5032055;28;20029;-72
2022/10/27 03:36:14;;;;;;;7.82;7.00;;;10.40;99.90;;;;;;5019964;28;20025;-71
2022/10/27 03:38:39;;;;;;;8.70;7.90;;;10.30;99.90;;;;;;5038156;28;20075;-72
2022/10/27 03:41:05;;;;;;;8.40;7.60;;;10.40;99.90;;;;;;5031586;28;20036;-72
2022/10/27 03:43:31;;;;;;;7.95;7.25;;;10.30;99.90;;;;;;5025134;28;20108;-72
2022/10/27 03:45:56;;;;;;;8.35;7.55;;;10.30;99.90;;;;;;5031610;28;20047;-72
2022/10/27 03:48:22;;;;;;;7.10;6.50;;;10.30;99.90;;;;;;5031595;28;20424;-72
2022/10/27 03:50:49;;;;;;;6.88;6.28;;;10.30;99.90;;;;;;5030255;28;20159;-73
2022/10/27 03:53:16;;;;;;;7.35;6.65;;;10.30;99.90;;;;;;5042921;28;20037;-72
2022/10/27 03:55:43;;;;;;;7.88;7.07;;;10.30;99.90;;;;;;5025094;28;20049;-72
2022/10/27 03:58:13;;;;;;;7.40;6.70;;;10.30;99.90;;;;;;5025581;28;20029;-72
2022/10/27 04:00:39;;;;;;;7.50;6.80;;;10.30;99.90;;;;;;5028776;28;20075;-72
2022/10/27 04:03:05;;;;;;;7.47;6.78;;;10.20;99.90;;;;;;5029446;28;20021;-73
2022/10/27 04:05:31;;;;;;;6.82;6.22;;;10.20;99.90;;;;;;5028215;28;20620;-72
2022/10/27 04:07:57;;;;;;;7.40;6.43;;;10.30;99.90;;;;;;5035107;28;20524;-72
2022/10/27 04:10:23;;;;;;;6.97;6.38;;;10.30;99.90;;;;;;5042960;28;20054;-72
2022/10/27 04:12:50;;;;;;;7.93;6.57;;;10.30;99.90;;;;;;5023634;28;20029;-71
2022/10/27 04:15:16;;;;;;;6.28;5.78;;;10.30;99.90;;;;;;5036726;28;20104;-72
2022/10/27 04:17:42;;;;;;;6.20;5.60;;;10.30;99.90;;;;;;5029331;28;20510;-72
2022/10/27 04:20:08;;;;;;;5.93;5.32;;;10.30;99.90;;;;;;5039313;28;20017;-72
2022/10/27 04:22:34;;;;;;;5.32;4.93;;;10.30;99.90;;;;;;5025186;28;20041;-72
2022/10/27 04:24:59;;;;;;;5.75;5.25;;;10.20;99.90;;;;;;5030977;28;20039;-72
2022/10/27 04:27:25;;;;;;;6.75;5.88;;;10.30;99.90;;;;;;5024915;28;20030;-72
2022/10/27 04:29:50;;;;;;;7.18;6.47;;;10.30;99.90;;;;;;5026799;28;20059;-72
2022/10/27 04:32:16;;;;;;;8.68;7.45;;;10.30;99.90;;;;;;5036627;28;20029;-72
2022/10/27 04:34:42;;;;;;;8.65;7.75;;;10.40;99.90;;;;;;5024192;28;20060;-72
2022/10/27 04:37:07;;;;;;;7.78;7.07;;;10.40;99.90;;;;;;5037930;28;20131;-72
2022/10/27 04:39:33;;;;;;;7.30;6.60;;;10.40;99.90;;;;;;5029710;28;20049;-72
2022/10/27 04:41:58;;;;;;;7.20;6.50;;;10.40;99.90;;;;;;5033903;28;20116;-72
2022/10/27 04:44:24;;;;;;;7.15;6.55;;;10.40;99.90;;;;;;5034101;28;20023;-72
2022/10/27 04:46:50;;;;;;;7.72;7.03;;;10.40;99.90;;;;;;5030385;28;20035;-72
2022/10/27 04:49:15;;;;;;;7.85;7.15;;;10.40;99.90;;;;;;5035418;28;20519;-72
2022/10/27 04:51:41;;;;;;;7.85;7.07;;;10.50;99.90;;;;;;5034767;28;20239;-72
2022/10/27 04:54:06;;;;;;;7.78;7.07;;;10.50;99.90;;;;;;5023314;28;20214;-72
2022/10/27 04:56:32;;;;;;;7.80;7.10;;;10.50;99.90;;;;;;5035184;28;20796;-72
2022/10/27 04:58:58;;;;;;;8.65;7.82;;;10.50;99.90;;;;;;5031043;28;20030;-72
2022/10/27 05:01:23;;;;;;;13.48;11.35;;;10.50;99.90;;;;;;5031386;28;20444;-72
2022/10/27 05:03:49;;;;;;;12.10;10.80;;;10.60;99.90;;;;;;5031723;28;20116;-72
2022/10/27 05:06:15;;;;;;;10.18;9.18;;;10.50;99.90;;;;;;5014954;28;20064;-72
2022/10/27 05:08:40;;;;;;;8.52;7.68;;;10.50;99.90;;;;;;5032008;28;20493;-72
2022/10/27 05:11:06;;;;;;;7.57;6.78;;;10.50;99.90;;;;;;5037974;28;20082;-73
2022/10/27 05:13:32;;;;;;;6.22;5.63;;;10.50;99.90;;;;;;5037040;28;20021;-72
2022/10/27 05:16:02;;;;;;;6.35;5.82;;;10.50;99.90;;;;;;5025583;28;20021;-72
2022/10/27 05:18:28;;;;;;;5.63;4.90;;;10.40;99.90;;;;;;5026406;28;20024;-72
2022/10/27 05:20:54;;;;;;;5.70;4.70;;;10.30;99.90;;;;;;5028417;28;20556;-72
2022/10/27 05:23:20;;;;;;;4.60;4.20;;;10.20;99.90;;;;;;5031757;28;20083;-72
2022/10/27 05:25:52;;;;;;;5.05;4.65;;;10.20;99.90;;;;;;5023772;28;20402;-72
2022/10/27 05:28:18;;;;;;;5.87;4.63;;;10.10;99.90;;;;;;5028918;28;20022;-72
2022/10/27 05:30:44;;;;;;;7.15;4.32;;;10.00;99.90;;;;;;5041524;28;20239;-72
2022/10/27 05:33:09;;;;;;;6.47;4.78;;;10.10;99.90;;;;;;5043500;28;20458;-72
2022/10/27 05:35:35;;;;;;;10.38;4.93;;;10.10;99.90;;;;;;5039575;28;20611;-72
2022/10/27 05:38:01;;;;;;;4.88;4.47;;;10.10;99.90;;;;;;5032477;28;20025;-72
2022/10/27 05:40:33;;;;;;;7.80;4.80;;;;;;;;;;5038913;28;20013;-72
2022/10/27 05:42:59;;;;;;;5.05;4.65;;;10.10;99.90;;;;;;5029555;28;20086;-72
2022/10/27 05:45:26;;;;;;;4.93;4.53;;;10.10;99.90;;;;;;5026529;28;20054;-72
2022/10/27 05:48:00;;;;;;;8.00;5.60;;;10.10;99.90;;;;;;5029250;28;20026;-73
2022/10/27 05:50:27;;;;;;;7.65;6.82;;;10.20;99.90;;;;;;5031999;28;22810;-72
2022/10/27 05:52:54;;;;;;;8.98;7.88;;;10.20;99.90;;;;;;5024858;28;20029;-72
2022/10/27 05:55:20;;;;;;;9.40;7.55;;;10.20;99.90;;;;;;5026754;28;20243;-72
2022/10/27 05:58:00;;;;;;;9.65;7.60;;;10.20;99.90;;;;;;5033894;28;20071;-72
2022/10/27 06:00:31;;;;;;;8.55;7.75;;;10.20;99.90;;;;;;5027211;28;20030;-72
2022/10/27 06:02:58;;;;;;;9.30;7.30;;;10.20;99.90;;;;;;5023435;28;20528;-72
2022/10/27 06:05:25;;;;;;;7.90;7.13;;;10.20;99.90;;;;;;5035202;28;20033;-73
2022/10/27 06:07:51;;;;;;;7.97;7.28;;;;;;;;;;5018313;28;20103;-72
2022/10/27 06:10:17;;;;;;;7.20;6.60;;;10.00;99.90;;;;;;5026340;28;20481;-73
2022/10/27 06:12:43;;;;;;;7.07;6.38;;;10.00;99.90;;;;;;5027354;28;20030;-72
2022/10/27 06:15:09;;;;;;;6.93;6.20;;;10.00;99.90;;;;;;5027361;28;20491;-72
2022/10/27 06:17:34;;;;;;;6.97;6.35;;;9.90;99.90;;;;;;5020307;28;22042;-73
2022/10/27 06:20:00;;;;;;;6.57;5.97;;;9.90;99.90;;;;;;5028255;28;20033;-73
2022/10/27 06:22:26;;;;;;;6.70;6.10;;;9.90;99.90;;;;;;5027724;28;20086;-73
2022/10/27 06:24:52;;;;;;;7.80;6.20;;;9.90;99.90;;;;;;5026767;28;20036;-73
2022/10/27 06:27:17;;;;;;;6.38;5.80;;;9.90;99.90;;;;;;5035508;28;20037;-72
2022/10/27 06:29:43;;;;;;;6.15;5.65;;;9.90;99.90;;;;;;5033316;28;20786;-73
2022/10/27 06:32:08;;;;;;;7.50;5.30;;;9.90;99.90;;;;;;5032399;28;20030;-73
2022/10/27 06:34:34;;;;;;;5.50;5.00;;;9.90;99.90;;;;;;5029923;28;20033;-73
2022/10/27 06:37:02;;;;;;;6.15;5.00;;;9.80;99.90;;;;;;5028603;28;20481;-72
2022/10/27 06:39:28;;;;;;;7.75;4.90;;;9.80;99.90;;;;;;5032736;28;20071;-72
2022/10/27 06:41:55;;;;;;;5.03;4.63;;;9.80;99.90;;;;;;5031523;28;20097;-72
2022/10/27 06:44:22;;;;;;;4.78;4.38;;;9.90;99.90;;;;;;5029657;28;20069;-73
2022/10/27 06:46:48;;;;;;;8.80;5.47;;;9.90;99.90;;;;;;5027551;28;20029;-73
2022/10/27 06:49:14;;;;;;;6.78;5.90;;;9.90;99.90;;;;;;5028632;28;20087;-73
2022/10/27 06:51:40;;;;;;;6.68;6.07;;;10.00;99.90;;;;;;5027971;28;20095;-73
2022/10/27 06:54:06;;;;;;;7.18;6.22;;;10.00;99.90;;;;;;5029645;28;20481;-73
2022/10/27 06:56:33;;;;;;;7.75;6.95;;;10.00;99.90;;;;;;5035741;28;20021;-73
2022/10/27 06:58:59;;;;;;;8.07;7.28;;;10.00;99.90;;;;;;5041068;28;20051;-73
2022/10/27 07:01:25;;;;;;;8.10;6.85;;;10.10;99.90;;;;;;5037630;28;20544;-72
2022/10/27 07:03:50;;;;;;;9.10;5.88;;;10.10;99.90;;;;;;5030850;28;20033;-73
2022/10/27 07:06:16;;;;;;;6.47;5.68;;;10.10;99.90;;;;;;5033262;28;20402;-73
2022/10/27 07:08:42;;;;;;;6.20;5.43;;;10.20;99.90;;;;;;5031399;28;20055;-73
2022/10/27 07:11:08;;;;;;;5.70;5.20;;;10.10;99.90;;;;;;5034157;28;20032;-73
2022/10/27 07:13:35;;;;;;;8.60;5.68;;;10.20;99.90;;;;;;5035749;28;20065;-73
2022/10/27 07:16:01;;;;;;;12.52;5.45;;;10.20;99.90;;;;;;5035655;28;20022;-73
2022/10/27 07:18:26;;;;;;;15.90;6.43;;;10.20;99.90;;;;;;5038254;28;20032;-73
2022/10/27 07:20:52;;;;;;;7.28;6.30;;;10.30;99.90;;;;;;5030904;28;20075;-73
2022/10/27 07:23:19;;;;;;;5.95;5.45;;;10.30;99.90;;;;;;5028172;28;20101;-73
2022/10/27 07:25:48;;;;;;;6.93;6.32;;;10.30;99.90;;;;;;5034960;28;20120;-73
2022/10/27 07:28:13;;;;;;;8.65;6.68;;;10.30;99.90;;;;;;5030603;28;20018;-73
2022/10/27 07:30:43;;;;;;;6.65;6.00;;;10.40;99.90;;;;;;5035813;28;20561;-73
2022/10/27 07:33:10;;;;;;;6.95;6.35;;;10.50;99.90;;;;;;5027883;28;20448;-73
2022/10/27 07:35:36;;;;;;;6.63;6.00;;;10.50;99.90;;;;;;5035792;28;20032;-73
2022/10/27 07:38:03;;;;;;;12.57;6.68;;;10.60;99.90;;;;;;5032877;28;20050;-73
2022/10/27 07:40:29;;;;;;;8.68;6.70;;;10.60;99.90;;;;;;5028071;28;20551;-73
2022/10/27 07:42:56;;;;;;;5.80;5.30;;;10.70;99.90;;;;;;5031331;28;20029;-73
2022/10/27 07:45:24;;;;;;;6.07;5.57;;;10.60;99.90;;;;;;5029004;28;20038;-73
2022/10/27 07:47:55;;;;;;;6.78;6.13;;;10.60;99.90;;;;;;5032198;28;20018;-73
2022/10/27 07:50:22;;;;;;;7.22;6.53;;;10.80;99.90;;;;;;5037508;28;20033;-73
2022/10/27 07:52:50;;;;;;;6.60;5.90;;;10.80;99.90;;;;;;5031240;28;20055;-72
2022/10/27 07:55:18;;;;;;;15.70;5.82;;;10.90;99.90;;;;;;5028297;28;20108;-72
2022/10/27 07:57:44;;;;;;;44.22;6.80;;;10.90;99.90;;;;;;5034252;28;20034;-73
2022/10/27 08:00:13;;;;;;;12.48;7.22;;;11.00;99.90;;;;;;5033766;28;20051;-73
2022/10/27 08:02:39;;;;;;;7.72;6.93;;;11.00;99.90;;;;;;5038596;28;20036;-73
2022/10/27 08:05:05;;;;;;;10.63;6.88;;;11.10;99.90;;;;;;5029145;28;20029;-72
2022/10/27 08:07:31;;;;;;;28.00;7.03;;;11.10;99.90;;;;;;5032170;28;20017;-72
2022/10/27 08:09:56;;;;;;;12.63;8.05;;;11.10;99.90;;;;;;5029834;28;20118;-73
2022/10/27 08:12:22;;;;;;;11.23;6.78;;;11.20;99.90;;;;;;5037570;28;20037;-73
2022/10/27 08:14:48;;;;;;;26.38;6.82;;;;;;;;;;5034836;28;20017;-73
2022/10/27 08:17:14;;;;;;;9.52;7.60;;;11.20;99.90;;;;;;5034381;28;20055;-73
2022/10/27 08:19:40;;;;;;;26.02;7.60;;;11.20;99.90;;;;;;5034630;28;20025;-73
2022/10/27 08:22:06;;;;;;;11.13;6.75;;;11.20;99.90;;;;;;5026750;28;20529;-73
2022/10/27 08:24:32;;;;;;;8.10;6.25;;;11.40;99.90;;;;;;5036241;28;20017;-72
2022/10/27 08:26:57;;;;;;;9.07;7.32;;;11.40;99.90;;;;;;5036243;28;20032;-73
2022/10/27 08:29:23;;;;;;;9.38;7.68;;;11.50;99.90;;;;;;5032785;28;20037;-72
2022/10/27 08:31:48;;;;;;;8.52;7.60;;;11.40;99.90;;;;;;5028720;28;20676;-72
2022/10/27 08:34:14;;;;;;;8.90;7.97;;;11.40;99.90;;;;;;5022260;28;20021;-72
2022/10/27 08:36:40;;;;;;;10.52;7.90;;;11.40;99.90;;;;;;5030292;28;20029;-73
2022/10/27 08:39:07;;;;;;;11.85;7.55;;;11.50;99.90;;;;;;5025930;28;20009;-73
2022/10/27 08:41:51;;;;;;;9.23;7.78;;;11.50;99.90;;;;;;5029403;28;20028;-72
2022/10/27 08:44:47;;;;;;;9.30;7.75;;;11.60;99.90;;;;;;5028135;28;20071;-73
2022/10/27 08:47:22;;;;;;;8.70;7.80;;;11.60;99.90;;;;;;5032175;28;20044;-72
2022/10/27 08:50:01;;;;;;;8.38;7.47;;;11.70;99.90;;;;;;5029182;28;20032;-72
2022/10/27 08:52:40;;;;;;;11.05;8.93;;;11.80;99.90;;;;;;5026862;28;20024;-73
2022/10/27 08:55:12;;;;;;;15.98;9.18;;;11.90;99.90;;;;;;5036388;28;20407;-72
2022/10/27 08:57:45;;;;;;;10.35;8.32;;;12.00;99.90;;;;;;5027995;28;20698;-72
2022/10/27 09:00:12;;;;;;;11.88;8.82;;;12.10;99.90;;;;;;5030574;28;20018;-74
2022/10/27 09:02:59;;;;;;;12.07;8.75;;;12.20;99.90;;;;;;5024645;28;20031;-74
2022/10/27 09:05:50;;;;;;;13.45;9.88;;;12.20;99.90;;;;;;5028245;28;20024;-72
2022/10/27 09:08:36;;;;;;;9.63;7.95;;;12.30;99.90;;;;;;5029351;28;20402;-72
2022/10/27 09:11:28;;;;;;;8.93;7.63;;;12.40;99.90;;;;;;5031720;28;20025;-71
2022/10/27 09:14:26;;;;;;;12.20;7.93;;;12.40;99.90;;;;;;5026492;28;20028;-72
2022/10/27 09:17:19;;;;;;;14.18;7.93;;;12.50;99.90;;;;;;5029054;28;20025;-72
2022/10/27 09:19:51;;;;;;;10.27;7.78;;;12.60;99.90;;;;;;5030112;28;20555;-72
2022/10/27 09:22:18;;;;;;;9.88;8.68;;;12.60;99.90;;;;;;5024713;28;20048;-72
2022/10/27 09:24:54;;;;;;;12.88;8.73;;;12.60;99.90;;;;;;5028531;28;20032;-73
2022/10/27 09:27:21;;;;;;;15.85;8.75;;;12.70;99.90;;;;;;5033625;28;20064;-72
2022/10/27 09:29:49;;;;;;;10.30;8.77;;;12.60;99.90;;;;;;5025911;28;20567;-73
2022/10/27 09:32:19;;;;;;;9.52;8.48;;;12.60;99.90;;;;;;5033261;28;20031;-73
2022/10/27 09:34:51;;;;;;;10.32;8.80;;;12.70;99.90;;;;;;5026411;28;20026;-72
2022/10/27 09:37:18;;;;;;;9.90;8.50;;;12.70;99.90;;;;;;5034818;28;20063;-73
2022/10/27 09:39:53;;;;;;;9.18;8.20;;;12.80;99.90;;;;;;5032587;28;20024;-72
2022/10/27 09:42:20;;;;;;;9.85;8.57;;;12.80;99.90;;;;;;5031531;28;20108;-72
2022/10/27 09:45:15;;;;;;;10.00;8.60;;;12.80;99.90;;;;;;5029139;28;20508;-73
2022/10/27 09:47:45;;;;;;;11.00;8.95;;;12.80;99.90;;;;;;5032891;28;20041;-72
2022/10/27 09:50:19;;;;;;;11.80;9.20;;;12.90;99.90;;;;;;5031161;28;20437;-72
2022/10/27 09:52:45;;;;;;;14.38;9.55;;;12.90;99.90;;;;;;5026654;28;20022;-72
2022/10/27 09:55:11;;;;;;;14.02;10.95;;;12.90;99.90;;;;;;5035714;28;20719;-72
2022/10/27 09:57:39;;;;;;;13.18;10.82;;;13.00;99.90;;;;;;5040425;28;20468;-72
2022/10/27 10:00:24;;;;;;;17.80;11.98;;;13.10;99.90;;;;;;5038251;28;20049;-72
2022/10/27 10:03:19;;;;;;;21.15;11.90;;;13.20;99.90;;;;;;5032975;28;20046;-72
2022/10/27 10:05:46;;;;;;;14.43;11.07;;;13.30;99.90;;;;;;5030677;28;20481;-72
2022/10/27 10:08:24;;;;;;;13.35;10.55;;;13.30;99.90;;;;;;5029632;28;20052;-72
2022/10/27 10:10:57;;;;;;;12.88;10.18;;;13.40;99.90;;;;;;5030615;28;20125;-72
2022/10/27 10:13:24;;;;;;;13.85;10.45;;;13.40;99.90;;;;;;5029410;28;20087;-73
2022/10/27 10:16:08;;;;;;;16.73;10.27;;;13.50;99.90;;;;;;5034218;28;20029;-73
2022/10/27 10:18:35;;;;;;;12.18;10.38;;;13.60;99.90;;;;;;5035242;28;20481;-72
2022/10/27 10:21:07;;;;;;;11.13;9.48;;;13.60;99.90;;;;;;5038759;28;20111;-72
2022/10/27 10:23:46;;;;;;;10.25;9.10;;;13.60;99.90;;;;;;5031399;28;20552;-72
2022/10/27 10:26:22;;;;;;;12.10;9.77;;;13.70;99.90;;;;;;5027264;28;20034;-73
2022/10/27 10:28:51;;;;;;;11.02;9.50;;;13.80;99.90;;;;;;5020581;28;20057;-72
2022/10/27 10:31:27;;;;;;;11.73;9.43;;;14.00;99.90;;;;;;5035702;28;20542;-72
2022/10/27 10:34:00;;;;;;;11.80;8.73;;;14.40;99.90;;;;;;5022875;28;20030;-72
2022/10/27 10:36:40;;;;;;;12.18;7.50;;;14.40;99.90;;;;;;5030590;28;20389;-73
2022/10/27 10:39:26;;;;;;;10.68;8.32;;;14.50;99.90;;;;;;5030007;28;20443;-72
2022/10/27 10:42:13;;;;;;;9.10;7.47;;;14.60;99.90;;;;;;5034552;28;20041;-72
2022/10/27 10:44:38;;;;;;;7.90;7.07;;;14.70;99.90;;;;;;5027528;28;20053;-72
2022/10/27 10:47:15;;;;;;;7.35;6.47;;;14.80;99.90;;;;;;5037989;28;20056;-72
2022/10/27 10:49:47;;;;;;;8.48;6.28;;;15.00;99.90;;;;;;5030007;28;20525;-73
2022/10/27 10:52:19;;;;;;;7.20;6.25;;;15.10;99.90;;;;;;5032640;28;20041;-73
2022/10/27 10:54:46;;;;;;;8.20;7.07;;;15.30;99.90;;;;;;5028690;28;20053;-72
2022/10/27 10:57:20;;;;;;;8.38;6.90;;;15.40;99.90;;;;;;5041845;28;20366;-72
2022/10/27 10:59:50;;;;;;;7.88;6.10;;;15.40;99.90;;;;;;5037592;28;20564;-73
2022/10/27 11:02:33;;;;;;;6.88;6.13;;;15.50;99.90;;;;;;5037993;28;20038;-73
2022/10/27 11:05:22;;;;;;;7.07;6.07;;;15.60;99.90;;;;;;5036478;28;20036;-73
2022/10/27 11:07:49;;;;;;;10.05;5.93;;;15.60;99.90;;;;;;5030240;28;20112;-73
2022/10/27 11:10:22;;;;;;;9.98;6.20;;;15.70;99.90;;;;;;5036820;28;20033;-73
2022/10/27 11:13:00;;;;;;;6.60;5.65;;;15.80;99.90;;;;;;5022631;28;20127;-73
2022/10/27 11:15:38;;;;;;;6.10;5.50;;;15.90;99.90;;;;;;5038505;28;20037;-73
2022/10/27 11:18:18;;;;;;;9.82;5.72;;;15.90;99.90;;;;;;5040575;28;20036;-73
2022/10/27 11:20:49;;;;;;;7.45;5.53;;;16.00;99.90;;;;;;5032901;28;20083;-73
2022/10/27 11:23:23;;;;;;;8.93;5.47;;;16.20;99.90;;;;;;5034810;28;20033;-73
2022/10/27 11:25:51;;;;;;;9.65;4.97;;;16.20;99.90;;;;;;5027917;28;20037;-73
2022/10/27 11:28:43;;;;;;;6.93;4.32;;;16.30;99.90;;;;;;5032880;28;20493;-74
2022/10/27 11:31:36;;;;;;;5.65;4.63;;;16.40;99.90;;;;;;5056783;28;20787;-73
2022/10/27 11:34:21;;;;;;;4.82;4.00;;;16.50;99.90;;;;;;5039629;28;20294;-73
2022/10/27 11:36:56;;;;;;;4.35;3.85;;;16.60;99.90;;;;;;5029625;28;20048;-73
2022/10/27 11:39:43;;;;;;;4.00;3.47;;;16.90;99.90;;;;;;5028065;28;20074;-73
2022/10/27 11:42:37;;;;;;;3.67;3.03;;;17.10;99.90;;;;;;5028639;28;20033;-73
2022/10/27 11:45:32;;;;;;;7.43;3.28;;;17.10;99.90;;;;;;5039353;28;20056;-73
2022/10/27 11:48:12;;;;;;;3.63;2.60;;;17.30;99.90;;;;;;5030708;28;20037;-72
2022/10/27 11:50:47;;;;;;;4.32;2.83;;;17.50;99.90;;;;;;5035512;28;20040;-73
2022/10/27 11:53:13;;;;;;;4.03;2.13;;;17.50;99.90;;;;;;5031032;28;20033;-72
2022/10/27 11:55:44;;;;;;;3.92;2.30;;;17.60;99.90;;;;;;5041801;28;20707;-73
2022/10/27 11:58:41;;;;;;;4.35;2.30;;;17.80;99.90;;;;;;5029752;28;20026;-73
2022/10/27 12:01:22;;;;;;;4.45;2.47;;;17.80;99.90;;;;;;5031529;28;20493;-73
2022/10/27 12:04:12;;;;;;;2.92;2.20;;;18.00;99.90;;;;;;5027777;28;20108;-73
2022/10/27 12:06:40;;;;;;;2.08;1.73;;;18.00;99.90;;;;;;5029532;28;20067;-74
2022/10/27 12:09:21;;;;;;;5.40;2.00;;;18.10;99.90;;;;;;5028218;28;20406;-73
2022/10/27 12:12:08;;;;;;;3.95;1.80;;;18.10;99.90;;;;;;5037498;28;20036;-73
2022/10/27 12:14:49;;;;;;;2.22;1.70;;;18.30;99.90;;;;;;5027750;28;20082;-73
2022/10/27 12:17:30;;;;;;;5.68;2.15;;;18.40;99.90;;;;;;5033396;28;20489;-74
2022/10/27 12:20:00;;;;;;;3.92;1.90;;;18.50;99.90;;;;;;4344449;28;10000920;-74
2022/10/27 12:22:34;;;;;;;8.60;2.03;;;18.40;99.90;;;;;;5054783;28;20040;-74
2022/10/27 12:25:15;;;;;;;3.50;1.92;;;18.50;99.90;;;;;;5065924;28;20040;-74
2022/10/27 12:27:45;;;;;;;2.08;1.48;;;18.60;99.90;;;;;;5074563;28;20040;-74
2022/10/27 12:30:20;;;;;;;4.25;1.88;;;18.60;99.90;;;;;;5068684;28;20599;-73
2022/10/27 12:32:52;;;;;;;3.28;1.55;;;18.70;99.90;;;;;;5061243;28;20036;-74
2022/10/27 12:35:28;;;;;;;4.60;1.77;;;18.80;99.90;;;;;;5064114;28;20020;-74
2022/10/27 12:38:29;;;;;;;3.22;1.60;;;18.80;99.90;;;;;;5063502;28;20096;-74
2022/10/27 12:41:22;;;;;;;3.85;1.95;;;18.80;99.90;;;;;;5062898;28;20036;-74
2022/10/27 12:44:19;;;;;;;4.10;1.90;;;18.90;99.90;;;;;;5059292;28;20112;-73
2022/10/27 12:46:56;;;;;;;7.05;1.85;;;18.90;99.90;;;;;;5073416;28;20381;-74
2022/10/27 12:49:43;;;;;;;2.97;1.80;;;19.10;99.90;;;;;;5074872;28;20066;-73
2022/10/27 12:52:25;;;;;;;4.55;2.17;;;19.20;99.90;;;;;;5050850;28;20044;-73
2022/10/27 12:55:18;;;;;;;3.92;2.05;;;19.20;99.90;;;;;;5028978;28;20021;-77
2022/10/27 12:58:08;;;;;;;2.75;1.60;;;19.20;99.90;;;;;;5033658;28;20329;-77
2022/10/27 13:00:48;;;;;;;2.60;1.65;;;19.20;99.90;;;;;;5026218;28;20029;-77